Terminal Aerodrome Forecast
Issued by NWS

Home | Current Version | Previous Version | Text Only | Print | Product List | Glossary On
Versions: 1 2 3 4 5 6 7 8 9 10 11 12 13 14
849
FTUS45 KFGZ 240527
TAFSEZ
TAF
KSEZ 240527Z 2406/2506 VRB06KT P6SM SKC
      TEMPO 2416/2419 18012G19KT
     FM241900 20017G26KT P6SM SKC
     FM250400 06006KT P6SM SKC=

USA.gov is the U.S. government's official web portal to all federal, state and local government web resources and services.